createdAt,value
2022-11-06T00:02:07.501Z,64.56
2022-11-06T00:04:33.830Z,64.93
2022-11-06T00:07:00.165Z,65.01
2022-11-06T00:09:26.483Z,64.50
2022-11-06T00:11:52.839Z,64.53
2022-11-06T00:14:19.175Z,64.52
2022-11-06T00:16:45.521Z,64.38
2022-11-06T00:19:11.845Z,64.16
2022-11-06T00:21:38.170Z,64.25
2022-11-06T00:24:04.493Z,63.97
2022-11-06T00:26:30.828Z,64.20
2022-11-06T00:28:57.169Z,64.18
2022-11-06T00:31:23.547Z,64.45
2022-11-06T00:33:49.903Z,64.50
2022-11-06T00:36:16.254Z,64.72
2022-11-06T00:38:42.575Z,65.09
2022-11-06T00:41:08.939Z,65.34
2022-11-06T00:43:35.289Z,65.84
2022-11-06T00:46:01.614Z,65.56
2022-11-06T00:48:27.935Z,65.78
2022-11-06T00:50:54.344Z,65.55
2022-11-06T00:53:20.676Z,65.34
2022-11-06T00:55:46.982Z,65.58
2022-11-06T00:58:13.622Z,65.55
2022-11-06T01:00:39.654Z,65.38
2022-11-06T01:03:06.180Z,65.29
2022-11-06T01:05:32.396Z,65.18
2022-11-06T01:07:58.713Z,65.17
2022-11-06T01:10:25.036Z,65.20
2022-11-06T01:12:51.381Z,65.18
2022-11-06T01:15:17.728Z,65.21
2022-11-06T01:17:44.072Z,65.27
2022-11-06T01:20:10.467Z,65.26
2022-11-06T01:22:36.779Z,65.18
2022-11-06T01:25:03.123Z,65.72
2022-11-06T01:27:29.500Z,65.76
2022-11-06T01:29:55.825Z,65.94
2022-11-06T01:32:22.138Z,65.85
2022-11-06T01:34:48.475Z,65.91
2022-11-06T01:37:15.223Z,66.06
2022-11-06T01:39:41.184Z,66.54
2022-11-06T01:42:07.522Z,66.49
2022-11-06T01:44:33.845Z,66.05
2022-11-06T01:47:00.180Z,65.40
2022-11-06T01:49:26.545Z,65.12
2022-11-06T01:51:52.885Z,64.94
2022-11-06T01:54:19.230Z,64.73
2022-11-06T01:56:45.542Z,64.94
2022-11-06T01:59:11.867Z,64.85
2022-11-06T02:01:38.358Z,64.96
2022-11-06T02:04:04.626Z,64.77
2022-11-06T02:06:30.972Z,64.70
2022-11-06T02:08:57.353Z,64.60
2022-11-06T02:11:23.661Z,64.18
2022-11-06T02:13:49.987Z,63.66
2022-11-06T02:16:16.306Z,63.54
2022-11-06T02:18:42.632Z,63.61
2022-11-06T02:21:08.960Z,63.17
2022-11-06T02:23:35.311Z,63.04
2022-11-06T02:26:01.649Z,63.47
2022-11-06T02:28:27.993Z,63.10
2022-11-06T02:30:54.328Z,62.98
2022-11-06T02:33:20.660Z,62.88
2022-11-06T02:35:46.979Z,62.63
2022-11-06T02:38:13.586Z,62.82
2022-11-06T02:40:39.667Z,62.80
2022-11-06T02:43:05.985Z,62.86
2022-11-06T02:45:32.357Z,63.24
2022-11-06T02:47:58.721Z,64.22
2022-11-06T02:50:25.043Z,64.10
2022-11-06T02:52:51.394Z,64.17
2022-11-06T02:55:17.712Z,64.28
2022-11-06T02:57:44.060Z,64.73
2022-11-06T03:00:10.420Z,65.04
2022-11-06T03:02:36.819Z,65.02
2022-11-06T03:05:03.116Z,64.71
2022-11-06T03:07:29.467Z,64.54
2022-11-06T03:09:55.791Z,64.51
2022-11-06T03:12:22.123Z,64.63
2022-11-06T03:14:48.488Z,65.67
2022-11-06T03:17:14.829Z,66.78
2022-11-06T03:19:41.167Z,67.47
2022-11-06T03:22:07.522Z,67.72
2022-11-06T03:24:33.857Z,67.81
2022-11-06T03:27:00.197Z,68.40
2022-11-06T03:29:26.533Z,68.28
2022-11-06T03:31:52.859Z,68.69
2022-11-06T03:34:19.202Z,69.29
2022-11-06T03:36:45.575Z,69.41
2022-11-06T03:39:11.867Z,69.42
2022-11-06T03:41:38.193Z,69.75
2022-11-06T03:44:04.533Z,69.90
2022-11-06T03:46:30.863Z,70.37
2022-11-06T03:48:57.188Z,70.50
2022-11-06T03:51:23.530Z,70.60
2022-11-06T03:53:49.913Z,71.08
2022-11-06T03:56:16.265Z,71.05
2022-11-06T03:58:42.623Z,71.31
2022-11-06T04:01:11.511Z,70.87
2022-11-06T04:03:35.299Z,70.44
2022-11-06T04:06:01.654Z,70.19
2022-11-06T04:08:27.980Z,71.16
2022-11-06T04:10:54.343Z,71.18
2022-11-06T04:13:20.681Z,70.94
2022-11-06T04:15:47.009Z,71.61
2022-11-06T04:18:13.652Z,71.59
2022-11-06T04:20:39.728Z,72.13
2022-11-06T04:23:06.067Z,72.68
2022-11-06T04:25:32.400Z,72.55
2022-11-06T04:27:58.770Z,72.47
2022-11-06T04:30:25.088Z,72.46
2022-11-06T04:32:54.602Z,73.33
2022-11-06T04:35:17.761Z,74.06
2022-11-06T04:37:44.102Z,73.77
2022-11-06T04:40:10.421Z,74.11
2022-11-06T04:42:36.803Z,73.51
2022-11-06T04:45:03.123Z,73.88
2022-11-06T04:47:29.452Z,73.67
2022-11-06T04:49:55.806Z,74.11
2022-11-06T04:52:22.127Z,74.20
2022-11-06T04:54:48.456Z,74.04
2022-11-06T04:57:14.774Z,74.23
2022-11-06T04:59:41.121Z,74.32
2022-11-06T05:02:07.514Z,74.67
2022-11-06T05:04:33.833Z,74.28
2022-11-06T05:07:00.161Z,74.54
2022-11-06T05:09:26.509Z,74.61
2022-11-06T05:11:52.821Z,74.80
2022-11-06T05:14:19.155Z,74.57
2022-11-06T05:16:45.496Z,74.39
2022-11-06T05:19:11.854Z,74.14
2022-11-06T05:21:38.169Z,74.59
2022-11-06T05:24:04.517Z,74.71
2022-11-06T05:26:30.930Z,75.17
2022-11-06T05:28:57.323Z,75.04
2022-11-06T05:31:23.672Z,75.08
2022-11-06T05:33:50.029Z,74.61
2022-11-06T05:36:16.358Z,74.71
2022-11-06T05:38:42.686Z,74.45
2022-11-06T05:41:09.030Z,74.41
2022-11-06T05:43:35.371Z,74.44
2022-11-06T05:46:01.705Z,74.31
2022-11-06T05:48:28.043Z,74.56
2022-11-06T05:50:54.424Z,74.36
2022-11-06T05:53:20.742Z,74.12
2022-11-06T05:55:47.089Z,73.90
2022-11-06T05:58:13.715Z,73.54
2022-11-06T06:00:39.793Z,73.45
2022-11-06T06:03:06.181Z,73.40
2022-11-06T06:05:32.434Z,73.80
2022-11-06T06:07:58.779Z,74.24
2022-11-06T06:10:25.102Z,74.42
2022-11-06T06:12:51.425Z,74.36
2022-11-06T06:15:17.794Z,74.32
2022-11-06T06:17:44.128Z,74.18
2022-11-06T06:20:10.488Z,74.53
2022-11-06T06:22:36.828Z,74.74
2022-11-06T06:25:03.255Z,74.99
2022-11-06T06:27:29.526Z,75.42
2022-11-06T06:29:55.850Z,75.35
2022-11-06T06:32:22.198Z,75.37
2022-11-06T06:34:48.542Z,75.80
2022-11-06T06:37:19.974Z,75.18
2022-11-06T06:39:41.232Z,74.84
2022-11-06T06:42:07.574Z,74.30
2022-11-06T06:44:33.920Z,73.93
2022-11-06T06:47:00.280Z,73.53
2022-11-06T06:49:26.646Z,73.47
2022-11-06T06:51:53.002Z,72.86
2022-11-06T06:54:19.384Z,72.51
2022-11-06T06:56:45.740Z,72.45
2022-11-06T06:59:12.104Z,72.25
2022-11-06T07:01:38.536Z,71.74
2022-11-06T07:04:04.778Z,71.75
2022-11-06T07:06:31.100Z,71.65
2022-11-06T07:08:57.428Z,71.60
2022-11-06T07:11:23.781Z,71.83
2022-11-06T07:13:50.145Z,72.13
2022-11-06T07:16:16.465Z,72.13
2022-11-06T07:18:42.788Z,72.25
2022-11-06T07:21:09.127Z,72.35
2022-11-06T07:23:35.498Z,72.34
2022-11-06T07:26:01.844Z,72.13
2022-11-06T07:28:28.180Z,71.92
2022-11-06T07:30:54.522Z,71.80
2022-11-06T07:33:20.905Z,72.02
2022-11-06T07:35:47.232Z,71.73
2022-11-06T07:38:13.772Z,72.02
2022-11-06T07:40:39.898Z,72.31
2022-11-06T07:43:06.287Z,72.13
2022-11-06T07:45:32.609Z,72.55
2022-11-06T07:47:59.359Z,72.46
2022-11-06T07:50:25.349Z,72.46
2022-11-06T07:52:51.671Z,72.33
2022-11-06T07:55:17.989Z,72.30
2022-11-06T07:57:44.320Z,72.31
2022-11-06T08:00:10.662Z,71.99
2022-11-06T08:02:37.056Z,71.89
2022-11-06T08:05:03.321Z,71.63
2022-11-06T08:07:29.670Z,71.53
2022-11-06T08:09:56.047Z,71.65
2022-11-06T08:12:22.371Z,72.33
2022-11-06T08:14:48.709Z,73.50
2022-11-06T08:17:15.093Z,73.21
2022-11-06T08:19:41.405Z,73.61
2022-11-06T08:22:07.873Z,72.72
2022-11-06T08:24:34.202Z,73.12
2022-11-06T08:27:00.527Z,73.57
2022-11-06T08:29:26.854Z,73.96
2022-11-06T08:31:53.211Z,74.19
2022-11-06T08:34:19.575Z,74.61
2022-11-06T08:36:49.445Z,76.23
2022-11-06T08:39:12.250Z,83.32
2022-11-06T08:41:38.609Z,94.38
2022-11-06T08:44:04.929Z,95.22
2022-11-06T08:46:31.257Z,95.11
2022-11-06T08:48:57.593Z,96.74
2022-11-06T08:51:23.960Z,100.00
2022-11-06T08:53:50.427Z,100.00
2022-11-06T08:56:16.689Z,100.00
2022-11-06T08:58:43.035Z,100.00
2022-11-06T09:01:09.388Z,100.00
2022-11-06T09:03:35.690Z,100.00
2022-11-06T09:06:02.062Z,100.00
2022-11-06T09:08:28.392Z,99.36
2022-11-06T09:10:58.620Z,100.00
2022-11-06T09:13:21.061Z,99.91
2022-11-06T09:15:47.406Z,97.85
2022-11-06T09:18:13.746Z,98.67
2022-11-06T09:20:40.087Z,99.63
2022-11-06T09:23:06.419Z,99.87
2022-11-06T09:25:32.755Z,99.12
2022-11-06T09:27:59.841Z,99.73
2022-11-06T09:30:25.519Z,99.15
2022-11-06T09:32:51.781Z,99.38
2022-11-06T09:35:18.153Z,99.36
2022-11-06T09:37:44.523Z,99.57
2022-11-06T09:40:10.825Z,100.00
2022-11-06T09:42:37.146Z,100.00
2022-11-06T09:45:03.487Z,100.00
2022-11-06T09:47:29.828Z,100.00
2022-11-06T09:49:56.178Z,100.00
2022-11-06T09:52:22.618Z,100.00
2022-11-06T09:54:55.880Z,100.00
2022-11-06T09:57:15.362Z,100.00
2022-11-06T09:59:41.709Z,100.00
2022-11-06T10:02:08.120Z,100.00
2022-11-06T10:04:34.387Z,99.03
2022-11-06T10:07:00.736Z,100.00
2022-11-06T10:09:27.080Z,99.96
2022-11-06T10:11:53.424Z,99.64
2022-11-06T10:14:19.765Z,99.64
2022-11-06T10:16:46.166Z,100.00
2022-11-06T10:19:12.497Z,99.95
2022-11-06T10:21:38.848Z,100.00
2022-11-06T10:24:05.177Z,99.65
2022-11-06T10:26:33.880Z,100.00
2022-11-06T10:28:57.985Z,100.00
2022-11-06T10:31:24.227Z,100.00
2022-11-06T10:33:50.554Z,100.00
2022-11-06T10:36:16.924Z,99.53
2022-11-06T10:38:43.253Z,99.12
2022-11-06T10:41:09.578Z,100.00
2022-11-06T10:43:35.908Z,100.00
2022-11-06T10:46:02.253Z,100.00
2022-11-06T10:48:31.115Z,100.00
2022-11-06T10:50:54.965Z,100.00
2022-11-06T10:53:21.329Z,100.00
2022-11-06T10:55:47.691Z,100.00
2022-11-06T10:58:14.375Z,100.00
2022-11-06T11:00:40.421Z,100.00
2022-11-06T11:03:06.758Z,100.00
2022-11-06T11:05:33.086Z,99.91
2022-11-06T11:07:59.424Z,100.00
2022-11-06T11:10:25.736Z,100.00
2022-11-06T11:12:52.065Z,100.00
2022-11-06T11:15:18.425Z,100.00
2022-11-06T11:17:44.784Z,100.00
2022-11-06T11:20:11.159Z,100.00
2022-11-06T11:22:37.593Z,100.00
2022-11-06T11:25:03.859Z,100.00
2022-11-06T11:27:30.185Z,100.00
2022-11-06T11:29:56.547Z,100.00
2022-11-06T11:32:22.891Z,100.00
2022-11-06T11:34:53.903Z,100.00
2022-11-06T11:37:15.557Z,99.86
2022-11-06T11:39:41.922Z,100.00
2022-11-06T11:42:08.251Z,99.92
2022-11-06T11:44:34.627Z,99.35
2022-11-06T11:47:01.935Z,99.53
2022-11-06T11:49:27.292Z,99.64
2022-11-06T11:51:53.664Z,99.32
2022-11-06T11:54:20.029Z,98.01
2022-11-06T11:59:12.714Z,97.79
2022-11-06T12:01:39.095Z,99.09
2022-11-06T12:04:05.364Z,98.84
2022-11-06T12:06:31.710Z,98.40
2022-11-06T12:08:58.024Z,98.27
2022-11-06T12:11:24.354Z,98.65
2022-11-06T12:13:50.707Z,97.55
2022-11-06T12:16:17.040Z,98.59
2022-11-06T12:18:43.363Z,98.44
2022-11-06T12:21:09.705Z,98.29
2022-11-06T12:23:36.018Z,98.59
2022-11-06T12:26:02.398Z,97.32
2022-11-06T12:28:28.736Z,98.50
2022-11-06T12:30:55.075Z,97.01
2022-11-06T12:33:24.647Z,97.50
2022-11-06T12:35:47.739Z,96.92
2022-11-06T12:38:14.544Z,98.30
2022-11-06T12:40:40.597Z,96.86
2022-11-06T12:43:06.904Z,96.18
2022-11-06T12:45:33.260Z,95.28
2022-11-06T12:47:59.580Z,94.96
2022-11-06T12:50:25.933Z,95.75
2022-11-06T12:52:52.289Z,94.70
2022-11-06T12:55:18.616Z,94.02
2022-11-06T12:57:44.940Z,95.86
2022-11-06T13:00:11.404Z,94.19
2022-11-06T13:02:37.813Z,95.91
2022-11-06T13:05:04.081Z,95.19
2022-11-06T13:07:30.425Z,94.83
2022-11-06T13:09:56.805Z,95.36
2022-11-06T13:12:23.147Z,95.23
2022-11-06T13:14:49.490Z,96.18
2022-11-06T13:17:15.830Z,96.35
2022-11-06T13:19:42.189Z,96.50
2022-11-06T13:22:08.525Z,94.58
2022-11-06T13:24:34.850Z,93.52
2022-11-06T13:27:01.168Z,93.98
2022-11-06T13:29:27.499Z,94.86
2022-11-06T13:31:53.880Z,93.60
2022-11-06T13:34:20.227Z,93.34
2022-11-06T13:36:46.577Z,89.20
2022-11-06T13:39:12.952Z,92.23
2022-11-06T13:41:39.276Z,92.93
2022-11-06T13:44:05.634Z,89.00
2022-11-06T13:46:31.975Z,88.58
2022-11-06T13:48:58.319Z,83.83
2022-11-06T13:51:24.667Z,84.09
2022-11-06T13:53:52.947Z,83.11
2022-11-06T13:56:17.351Z,84.58
2022-11-06T13:58:43.673Z,81.40
2022-11-06T14:01:10.082Z,84.81
2022-11-06T14:03:36.405Z,80.50
2022-11-06T14:06:02.732Z,78.47
2022-11-06T14:08:29.070Z,77.21
2022-11-06T14:10:55.419Z,79.68
2022-11-06T14:13:21.801Z,78.83
2022-11-06T14:15:48.136Z,79.53
2022-11-06T14:18:14.639Z,79.91
2022-11-06T14:20:40.836Z,79.76
2022-11-06T14:23:07.157Z,79.32
2022-11-06T14:25:33.489Z,79.56
2022-11-06T14:27:59.838Z,78.24
2022-11-06T14:30:43.774Z,78.12
2022-11-06T14:32:52.523Z,77.23
2022-11-06T14:35:18.868Z,75.08
2022-11-06T14:37:45.219Z,75.20
2022-11-06T14:40:11.555Z,74.64
2022-11-06T14:42:37.885Z,74.44
2022-11-06T14:45:04.218Z,74.06
2022-11-06T14:47:30.589Z,74.99
2022-11-06T14:49:56.923Z,73.81
2022-11-06T14:52:23.244Z,71.84
2022-11-06T14:54:49.592Z,71.40
2022-11-06T14:57:15.966Z,72.38
2022-11-06T14:59:42.301Z,70.79
2022-11-06T15:02:08.719Z,71.31
2022-11-06T15:04:35.060Z,71.33
2022-11-06T15:07:01.461Z,71.59
2022-11-06T15:09:27.783Z,71.35
2022-11-06T15:11:54.110Z,69.99
2022-11-06T15:14:20.421Z,70.63
2022-11-06T15:16:46.783Z,70.89
2022-11-06T15:19:13.128Z,70.80
2022-11-06T15:21:39.612Z,70.73
2022-11-06T15:24:05.931Z,70.51
2022-11-06T15:26:32.296Z,70.25
2022-11-06T15:28:58.692Z,69.74
2022-11-06T15:31:25.017Z,70.50
2022-11-06T15:33:55.551Z,69.87
2022-11-06T15:36:17.734Z,70.76
2022-11-06T15:38:44.072Z,70.65
2022-11-06T15:41:10.401Z,71.23
2022-11-06T15:43:36.747Z,71.00
2022-11-06T15:46:07.100Z,71.07
2022-11-06T15:48:29.436Z,70.74
2022-11-06T15:50:55.764Z,71.53
2022-11-06T15:53:22.105Z,71.00
2022-11-06T15:55:48.466Z,70.96
2022-11-06T15:58:15.117Z,70.90
2022-11-06T16:00:41.150Z,71.44
2022-11-06T16:03:07.494Z,72.00
2022-11-06T16:05:33.826Z,71.43
2022-11-06T16:08:00.149Z,71.30
2022-11-06T16:10:26.471Z,71.32
2022-11-06T16:12:52.822Z,71.54
2022-11-06T16:15:19.179Z,70.96
2022-11-06T16:17:46.363Z,71.63
2022-11-06T16:20:11.895Z,72.69
2022-11-06T16:22:38.302Z,73.64
2022-11-06T16:25:04.660Z,73.48
2022-11-06T16:27:31.011Z,73.85
2022-11-06T16:29:57.327Z,74.22
2022-11-06T16:32:23.674Z,74.49
2022-11-06T16:34:49.990Z,74.92
2022-11-06T16:37:16.357Z,75.39
2022-11-06T16:39:50.481Z,75.70
2022-11-06T16:42:09.032Z,75.99
2022-11-06T16:44:35.368Z,76.06
2022-11-06T16:47:01.726Z,76.14
2022-11-06T16:49:28.068Z,76.31
2022-11-06T16:51:54.416Z,76.30
2022-11-06T16:54:20.741Z,76.69
2022-11-06T16:56:47.179Z,76.84
2022-11-06T16:59:13.487Z,76.72
2022-11-06T17:01:39.938Z,76.75
2022-11-06T17:04:06.239Z,77.00
2022-11-06T17:06:32.608Z,77.28
2022-11-06T17:08:58.942Z,77.35
2022-11-06T17:11:25.292Z,77.36
2022-11-06T17:13:51.657Z,77.08
2022-11-06T17:16:18.038Z,76.94
2022-11-06T17:18:44.368Z,76.99
2022-11-06T17:21:10.696Z,77.23
2022-11-06T17:23:37.019Z,77.21
2022-11-06T17:26:03.364Z,78.51
2022-11-06T17:28:29.785Z,77.98
2022-11-06T17:30:56.181Z,78.01
2022-11-06T17:33:22.507Z,77.06
2022-11-06T17:35:48.832Z,75.80
2022-11-06T17:38:15.234Z,75.67
2022-11-06T17:40:41.559Z,75.72
2022-11-06T17:43:07.892Z,75.89
2022-11-06T17:45:34.420Z,75.89
2022-11-06T17:48:00.835Z,75.96
2022-11-06T17:50:27.200Z,75.95
2022-11-06T17:52:53.528Z,76.28
2022-11-06T17:55:19.904Z,76.70
2022-11-06T17:57:46.247Z,77.00
2022-11-06T18:00:12.598Z,77.03
2022-11-06T18:02:59.601Z,76.58
2022-11-06T18:05:05.283Z,76.70
2022-11-06T18:07:31.626Z,76.54
2022-11-06T18:09:57.972Z,77.00
2022-11-06T18:12:24.292Z,77.36
2022-11-06T18:14:50.661Z,77.38
2022-11-06T18:17:16.986Z,77.29
2022-11-06T18:19:43.575Z,77.44
2022-11-06T18:22:09.952Z,77.55
2022-11-06T18:24:36.271Z,77.72
2022-11-06T18:27:02.607Z,77.17
2022-11-06T18:29:28.948Z,77.13
2022-11-06T18:31:55.288Z,76.96
2022-11-06T18:34:21.613Z,76.78
2022-11-06T18:36:47.963Z,76.90
2022-11-06T18:39:14.322Z,76.93
2022-11-06T18:41:40.638Z,77.28
2022-11-06T18:44:06.985Z,77.64
2022-11-06T18:46:33.325Z,77.69
2022-11-06T18:48:59.668Z,77.67
2022-11-06T18:51:34.467Z,77.69
2022-11-06T18:53:52.375Z,78.15
2022-11-06T18:56:18.792Z,78.29
2022-11-06T18:58:45.044Z,78.17
2022-11-06T19:01:11.421Z,78.08
2022-11-06T19:03:37.758Z,78.08
2022-11-06T19:06:04.089Z,78.05
2022-11-06T19:08:30.412Z,78.22
2022-11-06T19:10:56.765Z,78.40
2022-11-06T19:13:23.083Z,78.13
2022-11-06T19:15:49.427Z,78.11
2022-11-06T19:18:16.199Z,78.04
2022-11-06T19:20:42.130Z,78.17
2022-11-06T19:23:08.470Z,78.54
2022-11-06T19:25:34.824Z,78.59
2022-11-06T19:28:01.148Z,78.51
2022-11-06T19:30:27.474Z,78.65
2022-11-06T19:32:53.857Z,79.06
2022-11-06T19:35:20.172Z,79.33
2022-11-06T19:37:46.535Z,79.49
2022-11-06T19:40:12.897Z,79.64
2022-11-06T19:42:39.216Z,79.49
2022-11-06T19:45:05.533Z,79.41
2022-11-06T19:47:31.861Z,79.47
2022-11-06T19:49:58.181Z,79.59
2022-11-06T19:52:43.237Z,79.64
2022-11-06T19:54:50.859Z,79.55
2022-11-06T19:57:28.620Z,79.43
2022-11-06T19:59:43.505Z,79.66
2022-11-06T20:02:09.935Z,79.98
2022-11-06T20:04:36.208Z,79.97
2022-11-06T20:07:02.571Z,80.13
2022-11-06T20:09:28.896Z,80.22
2022-11-06T20:11:55.238Z,80.49
2022-11-06T20:14:21.596Z,80.75
2022-11-06T20:16:47.945Z,81.07
2022-11-06T20:19:14.326Z,81.10
2022-11-06T20:21:40.677Z,81.01
2022-11-06T20:24:07.017Z,81.72
2022-11-06T20:26:33.366Z,81.81
2022-11-06T20:28:59.685Z,81.62
2022-11-06T20:31:26.010Z,81.30
2022-11-06T20:33:52.414Z,81.36
2022-11-06T20:36:18.761Z,81.18
2022-11-06T20:38:45.103Z,81.00
2022-11-06T20:41:11.439Z,80.46
2022-11-06T20:43:37.776Z,80.36
2022-11-06T20:46:04.116Z,80.13
2022-11-06T20:48:30.450Z,80.01
2022-11-06T20:50:56.794Z,79.77
2022-11-06T20:53:23.109Z,79.64
2022-11-06T20:55:49.485Z,79.46
2022-11-06T20:58:15.830Z,79.60
2022-11-06T21:00:42.188Z,79.55
2022-11-06T21:03:08.554Z,79.43
2022-11-06T21:05:34.854Z,79.52
2022-11-06T21:08:01.230Z,79.57
2022-11-06T21:10:27.557Z,79.67
2022-11-06T21:12:53.903Z,79.49
2022-11-06T21:15:20.396Z,79.36
2022-11-06T21:17:46.723Z,79.20
2022-11-06T21:20:13.059Z,79.22
2022-11-06T21:22:39.419Z,79.25
2022-11-06T21:25:05.768Z,79.11
2022-11-06T21:27:32.078Z,78.95
2022-11-06T21:29:58.476Z,78.83
2022-11-06T21:32:24.793Z,78.56
2022-11-06T21:34:51.123Z,77.91
2022-11-06T21:37:17.531Z,77.62
2022-11-06T21:39:43.937Z,77.72
2022-11-06T21:42:10.196Z,77.53
2022-11-06T21:44:36.552Z,77.70
2022-11-06T21:47:02.866Z,78.10
2022-11-06T21:49:29.240Z,78.04
2022-11-06T21:51:55.552Z,77.95
2022-11-06T21:54:21.873Z,78.31
2022-11-06T21:56:48.213Z,78.33
2022-11-06T21:59:14.542Z,78.26
2022-11-06T22:01:41.059Z,78.19
2022-11-06T22:04:07.239Z,78.26
2022-11-06T22:06:33.552Z,78.18
2022-11-06T22:08:59.877Z,78.28
2022-11-06T22:11:26.222Z,78.51
2022-11-06T22:13:52.568Z,78.75
2022-11-06T22:16:18.903Z,79.22
2022-11-06T22:18:45.228Z,79.35
2022-11-06T22:21:11.569Z,79.23
2022-11-06T22:23:37.915Z,79.45
2022-11-06T22:26:04.313Z,79.96
2022-11-06T22:28:30.789Z,80.35
2022-11-06T22:30:57.130Z,80.45
2022-11-06T22:33:23.464Z,80.77
2022-11-06T22:35:49.799Z,80.78
2022-11-06T22:38:16.150Z,81.17
2022-11-06T22:40:42.471Z,81.42
2022-11-06T22:43:08.798Z,81.78
2022-11-06T22:45:35.124Z,81.97
2022-11-06T22:48:01.448Z,82.02
2022-11-06T22:50:27.769Z,82.63
2022-11-06T22:52:54.116Z,83.09
2022-11-06T22:55:20.502Z,83.29
2022-11-06T22:57:46.949Z,83.10
2022-11-06T23:00:13.260Z,83.00
2022-11-06T23:02:39.680Z,82.46
2022-11-06T23:05:05.950Z,82.41
2022-11-06T23:07:32.274Z,82.25
2022-11-06T23:09:58.612Z,82.57
2022-11-06T23:12:24.934Z,82.59
2022-11-06T23:14:51.293Z,82.44
2022-11-06T23:17:17.634Z,82.60
2022-11-06T23:19:43.951Z,82.78
2022-11-06T23:22:10.334Z,83.06
2022-11-06T23:24:36.658Z,83.14
2022-11-06T23:27:02.982Z,83.50
2022-11-06T23:29:29.301Z,83.55
2022-11-06T23:31:55.643Z,83.81
2022-11-06T23:34:21.955Z,83.79
2022-11-06T23:36:48.338Z,83.79
2022-11-06T23:39:14.672Z,84.43
2022-11-06T23:41:41.013Z,84.87
2022-11-06T23:44:07.352Z,84.90
2022-11-06T23:46:33.673Z,84.62
2022-11-06T23:48:59.993Z,84.53
2022-11-06T23:51:26.352Z,84.41
2022-11-06T23:53:52.685Z,84.45
2022-11-06T23:56:19.010Z,84.50
2022-11-06T23:58:45.366Z,84.36
